Time;durP1;ratioP1;P1;durP2;ratioP2;P2;SDS_P1;SDS_P2;PMS_P1;PMS_P2;Temp;Humidity;BMP_temperature;BMP_pressure;BME280_temperature;BME280_humidity;BME280_pressure;Samples;Min_cycle;Max_cycle;Signal;HPM_P1;HPM_P2
2022/07/28 00:00:06;;;;;;;3.60;3.05;;;;;;;22.44;69.48;100881.13;5016745;28;102217;-54
2022/07/28 00:02:33;;;;;;;3.10;2.90;;;;;;;22.44;69.66;100890.25;5017644;28;102645;-54
2022/07/28 00:05:01;;;;;;;3.45;3.10;;;;;;;22.44;69.61;100883.88;5015529;28;104053;-54
2022/07/28 00:07:27;;;;;;;3.37;3.17;;;;;;;22.43;69.65;100885.88;5015964;28;102418;-54
2022/07/28 00:09:54;;;;;;;3.42;3.10;;;;;;;22.44;69.46;100889.44;5016747;28;102291;-54
2022/07/28 00:12:21;;;;;;;3.30;3.00;;;;;;;22.43;69.67;100883.09;5016793;28;103545;-54
2022/07/28 00:14:49;;;;;;;3.42;3.13;;;;;;;22.43;69.52;100877.53;5015559;28;104142;-54
2022/07/28 00:17:15;;;;;;;2.85;2.65;;;;;;;22.43;69.94;100879.47;5016620;28;102299;-54
2022/07/28 00:19:46;;;;;;;3.25;3.05;;;;;;;22.42;69.64;100875.91;5002658;28;103399;-54
2022/07/28 00:22:14;;;;;;;2.88;2.67;;;;;;;22.43;69.77;100882.25;5016779;28;102234;-54
2022/07/28 00:24:41;;;;;;;5.15;3.45;;;;;;;22.42;69.84;100886.19;5015691;28;103955;-54
2022/07/28 00:27:08;;;;;;;3.25;3.05;;;;;;;22.42;69.71;100881.44;5017194;28;102406;-54
2022/07/28 00:29:34;;;;;;;3.00;2.80;;;;;;;22.41;69.59;100879.03;5015256;28;102739;-54
2022/07/28 00:32:01;;;;;;;3.83;3.08;;;;;;;22.42;70.00;100881.44;5016629;27;102291;-53
2022/07/28 00:34:29;;;;;;;3.25;3.05;;;;;;;22.42;69.50;100883.41;4997925;28;105810;-54
2022/07/28 00:36:55;;;;;;;3.22;3.00;;;;;;;22.42;69.70;100880.66;4996499;28;102244;-54
2022/07/28 00:39:23;;;;;;;3.13;2.92;;;;;;;22.42;69.74;100886.19;4996711;28;102036;-53
2022/07/28 00:41:50;;;;;;;3.40;3.15;;;;;;;22.41;69.83;100885.38;4995789;28;102117;-54
2022/07/28 00:44:16;;;;;;;3.03;2.83;;;;;;;22.41;69.71;100873.50;4996175;28;104015;-53
2022/07/28 00:46:44;;;;;;;2.92;2.72;;;;;;;22.42;69.61;100881.44;4997089;28;102090;-53
2022/07/28 00:49:13;;;;;;;3.53;3.22;;;;;;;22.42;69.69;100880.66;4996603;28;102451;-54
2022/07/28 00:51:39;;;;;;;3.42;3.00;;;;;;;22.42;69.59;100877.88;4995525;28;102460;-54
2022/07/28 00:54:06;;;;;;;3.22;3.00;;;;;;;22.42;69.86;100888.97;4995995;28;103939;-54
2022/07/28 00:56:34;;;;;;;3.08;2.88;;;;;;;22.42;69.76;100883.41;4995802;28;102076;-54
2022/07/28 00:59:01;;;;;;;3.40;3.10;;;;;;;22.42;69.66;100878.69;4996279;28;102263;-54
2022/07/28 01:01:27;;;;;;;3.00;2.80;;;;;;;22.41;69.65;100884.59;4996797;28;102346;-54
2022/07/28 01:04:00;;;;;;;3.08;2.88;;;;;;;22.41;69.90;100879.03;5003788;28;103903;-54
2022/07/28 01:06:47;;;;;;;2.97;2.50;;;;;;;22.41;69.73;100873.50;5008538;28;102267;-54
2022/07/28 01:09:25;;;;;;;3.25;3.05;;;;;;;22.41;69.99;100882.63;4976474;28;102012;-54
2022/07/28 01:12:00;;;;;;;3.30;3.05;;;;;;;22.41;69.87;100876.25;4990355;28;102640;-53
2022/07/28 01:14:35;;;;;;;3.38;3.10;;;;;;;22.41;69.97;100879.03;4976214;28;104078;-54
2022/07/28 01:17:10;;;;;;;3.00;2.80;;;;;;;22.40;69.60;100872.69;4992640;28;102496;-54
2022/07/28 01:19:42;;;;;;;3.13;2.85;;;;;;;22.41;69.81;100885.38;4995342;28;102240;-53
2022/07/28 01:22:11;;;;;;;3.38;3.08;;;;;;;22.41;69.64;100876.25;4995912;28;102468;-54
2022/07/28 01:24:48;;;;;;;3.55;3.22;;;;;;;22.41;69.90;100879.84;4994576;28;104213;-53
2022/07/28 01:27:33;;;;;;;3.15;2.95;;;;;;;22.40;69.70;100883.78;4976512;28;101873;-53
2022/07/28 01:30:09;;;;;;;3.25;3.05;;;;;;;22.39;69.66;100879.38;4976114;28;102040;-54
2022/07/28 01:32:42;;;;;;;;;;;;;;;22.41;69.97;100873.50;4994088;28;102166;-54
2022/07/28 01:35:13;;;;;;;3.40;3.10;;;;;;;22.39;69.72;100870.25;4994897;28;108170;-53
2022/07/28 01:37:43;;;;;;;3.58;3.22;;;;;;;22.40;69.97;100872.69;4998514;28;102280;-54
2022/07/28 01:40:14;;;;;;;3.35;3.05;;;;;;;22.39;69.74;100870.25;4999301;28;102333;-54
2022/07/28 01:42:46;;;;;;;3.65;3.08;;;;;;;22.40;69.68;100875.47;4999009;28;102370;-54
2022/07/28 01:45:13;;;;;;;3.25;3.05;;;;;;;22.41;69.93;100870.72;4998320;28;103814;-54
2022/07/28 01:47:45;;;;;;;3.15;2.95;;;;;;;22.41;69.90;100873.50;4994972;28;101783;-54
2022/07/28 01:50:14;;;;;;;3.45;3.10;;;;;;;22.40;69.95;100880.19;4979272;28;103553;-54
2022/07/28 01:52:43;;;;;;;3.45;3.15;;;;;;;22.40;69.83;100872.69;4985603;28;102200;-53
2022/07/28 01:55:12;;;;;;;3.65;3.35;;;;;;;22.40;69.82;100878.22;4998687;28;103886;-54
2022/07/28 01:57:40;;;;;;;2.80;2.60;;;;;;;22.41;69.71;100881.81;4999160;28;102255;-54
2022/07/28 02:00:12;;;;;;;3.33;3.03;;;;;;;22.40;69.95;100882.97;4996859;28;102795;-54
2022/07/28 02:02:45;;;;;;;3.47;3.08;;;;;;;22.40;70.07;100888.53;4999991;28;102337;-54
2022/07/28 02:05:15;;;;;;;3.10;2.80;;;;;;;22.40;69.80;100891.28;4998118;28;104098;-54
2022/07/28 02:07:43;;;;;;;2.85;2.63;;;;;;;22.40;69.96;100894.88;4998989;28;102380;-57
2022/07/28 02:10:15;;;;;;;3.17;2.97;;;;;;;22.40;69.66;100899.63;4998547;28;102449;-54
2022/07/28 02:12:44;;;;;;;3.35;3.00;;;;;;;22.39;69.96;100898.78;4999181;28;102100;-54
2022/07/28 02:15:12;;;;;;;3.22;2.92;;;;;;;22.40;69.96;100896.84;4998340;28;103871;-54
2022/07/28 02:17:42;;;;;;;3.25;2.95;;;;;;;22.40;69.62;100902.38;4979018;28;102416;-54
2022/07/28 02:20:12;;;;;;;3.72;2.95;;;;;;;22.40;69.88;100905.16;4996255;28;102291;-54
2022/07/28 02:22:40;;;;;;;3.08;2.80;;;;;;;22.40;69.85;100905.16;4999397;28;102373;-54
2022/07/28 02:25:08;;;;;;;3.40;3.10;;;;;;;22.42;69.76;100913.91;4993651;28;103928;-54
2022/07/28 02:27:38;;;;;;;3.20;2.90;;;;;;;22.39;69.79;100912.63;4998120;28;102279;-54
2022/07/28 02:30:10;;;;;;;3.30;3.10;;;;;;;22.40;70.07;100910.69;4997719;28;102216;-54
2022/07/28 02:32:43;;;;;;;3.15;2.95;;;;;;;22.39;70.05;100911.84;4999609;28;102061;-54
2022/07/28 02:35:21;;;;;;;3.20;3.00;;;;;;;22.40;69.90;100910.69;4997363;28;103967;-53
2022/07/28 02:37:52;;;;;;;3.20;3.00;;;;;;;22.39;69.91;100914.59;4998877;28;102392;-54
2022/07/28 02:40:21;;;;;;;3.03;2.83;;;;;;;22.38;69.93;100916.56;4997649;28;102018;-54
2022/07/28 02:42:49;;;;;;;;;;;;;;;22.38;69.89;100913.00;4999714;28;102190;-54
2022/07/28 02:45:19;;;;;;;2.93;2.77;;;;;;;22.39;69.69;100914.59;4996734;28;104048;-54
2022/07/28 02:47:50;;;;;;;3.78;3.40;;;;;;;22.38;69.71;100913.00;4993211;28;102463;-54
2022/07/28 02:50:23;;;;;;;3.85;3.10;;;;;;;22.40;69.79;100916.25;4994326;28;102573;-54
2022/07/28 02:52:54;;;;;;;3.05;2.80;;;;;;;22.38;70.18;100922.13;4998463;28;102196;-54
2022/07/28 02:55:20;;;;;;;3.55;3.25;;;;;;;22.39;69.69;100920.16;4977189;28;103925;-54
2022/07/28 02:57:47;;;;;;;3.85;3.55;;;;;;;22.37;69.84;100916.94;4978497;28;102123;-53
2022/07/28 03:00:14;;;;;;;3.38;3.08;;;;;;;22.39;70.03;100925.69;4978614;28;104410;-54
2022/07/28 03:02:45;;;;;;;3.67;2.97;;;;;;;22.37;69.63;100928.84;4998345;28;102179;-54
2022/07/28 03:05:13;;;;;;;3.55;3.17;;;;;;;22.39;69.98;100931.25;4997801;28;104167;-54
2022/07/28 03:07:42;;;;;;;3.60;3.30;;;;;;;22.39;69.93;100932.06;4995254;28;103946;-53
2022/07/28 03:10:18;;;;;;;3.08;2.88;;;;;;;22.38;69.75;100929.63;4997754;28;101895;-57
2022/07/28 03:12:44;;;;;;;3.30;3.03;;;;;;;22.39;69.82;100920.16;4998753;28;102228;-54
2022/07/28 03:15:11;;;;;;;3.45;3.10;;;;;;;22.38;69.88;100929.63;4997041;28;103925;-54
2022/07/28 03:17:38;;;;;;;3.33;3.00;;;;;;;22.38;69.75;100937.97;4996990;28;102038;-54
2022/07/28 03:20:08;;;;;;;3.55;3.25;;;;;;;22.38;70.03;100924.91;4997411;28;102044;-53
2022/07/28 03:22:35;;;;;;;3.83;3.27;;;;;;;22.38;69.97;100929.63;4998734;28;102627;-53
2022/07/28 03:25:09;;;;;;;3.80;3.45;;;;;;;22.37;70.06;100931.59;4997116;28;103915;-54
2022/07/28 03:27:39;;;;;;;3.60;3.30;;;;;;;22.39;69.85;100939.56;4996648;28;102310;-53
2022/07/28 03:30:08;;;;;;;3.25;2.95;;;;;;;22.38;69.63;100937.97;4997461;28;102246;-54
2022/07/28 03:32:40;;;;;;;3.50;3.20;;;;;;;22.37;69.84;100934.38;4997632;28;102226;-53
2022/07/28 03:35:08;;;;;;;3.88;3.30;;;;;;;22.37;70.06;100928.84;4996718;28;103923;-53
2022/07/28 03:37:48;;;;;;;3.42;2.97;;;;;;;22.37;69.73;100931.59;4996894;28;102022;-53
2022/07/28 03:40:19;;;;;;;6.10;3.22;;;;;;;22.37;69.75;100934.38;4996768;28;101990;-53
2022/07/28 03:42:47;;;;;;;3.22;3.00;;;;;;;22.38;69.77;100935.19;4998207;28;102319;-53
2022/07/28 03:45:14;;;;;;;4.38;3.03;;;;;;;22.37;69.94;100945.47;4996720;28;103996;-53
2022/07/28 03:47:49;;;;;;;4.05;3.45;;;;;;;22.38;69.74;100949.03;4995912;28;102291;-54
2022/07/28 03:50:16;;;;;;;3.00;2.80;;;;;;;22.39;69.91;100948.69;4997000;28;102268;-53
2022/07/28 03:52:43;;;;;;;3.67;3.38;;;;;;;22.40;69.79;100949.53;4997845;28;102373;-54
2022/07/28 03:55:12;;;;;;;3.90;3.50;;;;;;;22.40;69.70;100949.53;4995953;28;105183;-53
2022/07/28 03:57:41;;;;;;;3.33;3.03;;;;;;;22.41;69.70;100951.13;4996899;28;102179;-53
2022/07/28 04:00:09;;;;;;;3.45;3.15;;;;;;;22.42;69.54;100948.00;4996647;28;102292;-54
2022/07/28 04:02:42;;;;;;;2.80;2.60;;;;;;;22.42;69.64;100947.19;4998230;28;102403;-54
2022/07/28 04:05:10;;;;;;;3.38;3.08;;;;;;;22.43;69.56;100954.34;4995977;28;103987;-54
2022/07/28 04:07:56;;;;;;;4.45;3.20;;;;;;;22.43;69.51;100952.41;4995724;28;102232;-54
2022/07/28 04:10:23;;;;;;;3.47;3.10;;;;;;;22.43;69.51;100948.81;4996833;28;102581;-54
2022/07/28 04:12:53;;;;;;;3.15;2.90;;;;;;;22.45;69.34;100950.09;4998286;28;102335;-53
2022/07/28 04:15:22;;;;;;;2.90;2.70;;;;;;;22.46;69.54;100953.66;4981419;28;104096;-54
2022/07/28 04:17:50;;;;;;;3.20;3.00;;;;;;;22.46;69.57;100948.13;4989948;28;102456;-54
2022/07/28 04:20:17;;;;;;;3.35;3.05;;;;;;;22.46;69.86;100962.78;4987143;28;102066;-53
2022/07/28 04:22:44;;;;;;;3.38;3.08;;;;;;;22.47;69.50;100958.06;4996249;28;102473;-53
2022/07/28 04:25:13;;;;;;;3.63;3.30;;;;;;;22.48;69.45;100951.38;4989339;28;103934;-53
2022/07/28 04:27:40;;;;;;;3.70;3.40;;;;;;;22.48;69.46;100963.25;5004226;27;102327;-54
2022/07/28 04:30:12;;;;;;;3.40;3.10;;;;;;;22.49;69.32;100961.28;5007496;28;102713;-53
2022/07/28 04:32:39;;;;;;;3.58;3.28;;;;;;;22.49;69.44;100955.75;4997424;28;102438;-54
2022/07/28 04:35:07;;;;;;;3.40;3.10;;;;;;;22.50;69.43;100949.03;5000203;28;104121;-54
2022/07/28 04:37:33;;;;;;;3.47;3.00;;;;;;;22.49;69.55;100953.78;5002293;28;104882;-53
2022/07/28 04:40:00;;;;;;;3.33;3.03;;;;;;;22.51;69.44;100956.22;5006530;28;102150;-53
2022/07/28 04:42:26;;;;;;;3.67;3.35;;;;;;;22.51;69.56;100953.44;4996480;28;102367;-53
2022/07/28 04:44:52;;;;;;;3.42;3.13;;;;;;;22.52;69.45;100963.38;4995986;28;103902;-53
2022/07/28 04:47:21;;;;;;;3.60;3.30;;;;;;;22.52;69.53;100955.88;4994908;28;102475;-53
2022/07/28 04:49:47;;;;;;;2.95;2.75;;;;;;;22.52;69.41;100960.59;4992173;28;102245;-54
2022/07/28 04:52:14;;;;;;;3.00;2.78;;;;;;;22.54;69.37;100966.63;4997281;28;102303;-53
2022/07/28 04:54:41;;;;;;;3.22;2.90;;;;;;;22.54;69.76;100966.63;4995727;28;104435;-53
2022/07/28 04:57:09;;;;;;;3.63;3.08;;;;;;;22.53;69.60;100971.34;4996406;28;102479;-54
2022/07/28 04:59:36;;;;;;;3.45;3.20;;;;;;;22.55;69.44;100968.25;4995360;28;102057;-53
2022/07/28 05:02:03;;;;;;;2.90;2.70;;;;;;;22.56;69.65;100975.41;4996838;28;102132;-53
2022/07/28 05:04:34;;;;;;;3.45;3.15;;;;;;;22.58;69.57;100983.38;4995825;28;104053;-53
2022/07/28 05:07:01;;;;;;;3.17;2.90;;;;;;;22.58;69.54;100978.66;4995897;28;102070;-53
2022/07/28 05:09:28;;;;;;;3.20;3.00;;;;;;;22.58;69.41;100984.19;4995670;28;102346;-54
2022/07/28 05:11:54;;;;;;;3.13;2.92;;;;;;;22.61;69.47;100983.50;4998958;28;102532;-53
2022/07/28 05:14:21;;;;;;;3.30;3.10;;;;;;;22.61;69.62;100991.84;4998577;28;103967;-53
2022/07/28 05:16:48;;;;;;;3.28;3.08;;;;;;;22.61;69.65;100986.28;5000114;28;102333;-53
2022/07/28 05:19:15;;;;;;;3.13;2.92;;;;;;;22.62;69.46;100996.22;4998326;28;104184;-53
2022/07/28 05:21:42;;;;;;;2.95;2.75;;;;;;;22.65;69.42;101006.63;4999944;28;102730;-53
2022/07/28 05:24:09;;;;;;;2.83;2.63;;;;;;;22.67;69.22;101007.06;4998350;28;103890;-53
2022/07/28 05:26:36;;;;;;;3.22;3.00;;;;;;;22.67;69.22;101004.28;4998062;28;102136;-53
2022/07/28 05:29:03;;;;;;;2.88;2.67;;;;;;;22.67;69.18;101004.28;4998009;28;102287;-53
2022/07/28 05:31:29;;;;;;;3.50;3.20;;;;;;;22.66;69.43;101002.69;5000724;28;102589;-53
2022/07/28 05:33:56;;;;;;;3.45;3.15;;;;;;;22.66;69.40;100999.91;4998083;28;103912;-53
2022/07/28 05:36:23;;;;;;;3.25;3.00;;;;;;;22.65;69.33;100994.72;4998426;28;102189;-53
2022/07/28 05:38:51;;;;;;;3.20;3.00;;;;;;;22.66;69.44;100996.31;4999051;28;102155;-53
2022/07/28 05:41:17;;;;;;;3.23;2.83;;;;;;;22.67;69.26;100998.75;5000331;28;102342;-53
2022/07/28 05:43:44;;;;;;;3.67;2.83;;;;;;;22.69;69.17;100998.41;4998144;28;103956;-53
2022/07/28 05:46:10;;;;;;;2.85;2.65;;;;;;;22.70;69.15;101000.81;5002130;28;102567;-53
2022/07/28 05:48:37;;;;;;;2.90;2.70;;;;;;;22.74;69.11;100995.41;4995251;28;102280;-53
2022/07/28 05:51:05;;;;;;;;;;;;;;;22.76;69.16;100991.13;4997548;28;102371;-54
2022/07/28 05:53:32;;;;;;;3.30;3.00;;;;;;;22.79;69.17;101006.25;4996050;28;104253;-53
2022/07/28 05:55:59;;;;;;;2.83;2.63;;;;;;;22.82;69.14;101004.75;4994104;28;102674;-53
2022/07/28 05:58:27;;;;;;;2.90;2.65;;;;;;;22.83;69.21;101003.59;4996595;28;102613;-54
2022/07/28 06:00:57;;;;;;;2.70;2.50;;;;;;;22.86;69.03;101002.91;5004984;28;102183;-53
2022/07/28 06:03:24;;;;;;;3.17;2.88;;;;;;;22.89;68.79;101010.53;4996434;28;108094;-54
2022/07/28 06:05:53;;;;;;;3.40;3.00;;;;;;;22.91;69.02;101014.59;4998435;28;102485;-54
2022/07/28 06:08:20;;;;;;;3.20;3.00;;;;;;;22.91;68.96;101013.78;4998207;28;101871;-54
2022/07/28 06:11:00;;;;;;;3.00;2.80;;;;;;;22.92;68.87;101015.44;4999268;28;102109;-54
2022/07/28 06:13:29;;;;;;;2.90;2.67;;;;;;;22.89;69.08;101014.13;4998703;28;103807;-53
2022/07/28 06:15:58;;;;;;;2.70;2.50;;;;;;;22.88;68.98;101020.03;4998955;28;102164;-53
2022/07/28 06:18:27;;;;;;;3.10;2.90;;;;;;;22.85;68.98;101015.97;4993364;28;102449;-54
2022/07/28 06:20:53;;;;;;;3.13;2.92;;;;;;;22.83;69.03;101023.84;5000577;28;102152;-53
2022/07/28 06:23:24;;;;;;;2.83;2.63;;;;;;;22.82;69.22;101027.75;5011739;28;104144;-53
2022/07/28 06:25:51;;;;;;;3.15;2.95;;;;;;;22.82;69.15;101026.94;4998613;28;102012;-54
2022/07/28 06:28:18;;;;;;;3.10;2.90;;;;;;;22.79;69.10;101032.06;4998556;28;102367;-54
2022/07/28 06:30:47;;;;;;;3.40;3.10;;;;;;;22.79;69.28;101034.00;4999332;28;102548;-54
2022/07/28 06:33:14;;;;;;;2.95;2.75;;;;;;;22.81;69.07;101036.44;4998236;28;103926;-54
2022/07/28 06:35:41;;;;;;;2.58;2.38;;;;;;;22.84;68.99;101031.00;4983960;28;102323;-53
2022/07/28 06:38:08;;;;;;;3.10;2.80;;;;;;;22.88;68.90;101036.69;4998532;28;102198;-54
2022/07/28 06:40:35;;;;;;;2.80;2.60;;;;;;;22.92;68.71;101032.06;4996753;28;102207;-54
2022/07/28 06:43:02;;;;;;;3.28;2.80;;;;;;;22.96;68.69;101033.00;4997999;28;103990;-54
2022/07/28 06:45:28;;;;;;;2.70;2.50;;;;;;;22.98;68.65;101033.47;4995874;28;102034;-54
2022/07/28 06:47:56;;;;;;;5.55;2.78;;;;;;;23.00;68.61;101022.81;4996986;28;102284;-54
2022/07/28 06:50:23;;;;;;;2.80;2.60;;;;;;;23.02;68.74;101026.06;4998979;28;102580;-54
2022/07/28 06:52:50;;;;;;;3.20;2.70;;;;;;;23.01;68.73;101030.00;4997683;28;103867;-54
2022/07/28 06:55:17;;;;;;;2.75;2.55;;;;;;;22.99;68.87;101033.09;4998321;28;102208;-54
2022/07/28 06:57:43;;;;;;;2.42;2.22;;;;;;;22.96;68.54;101042.13;4997630;28;101920;-53
2022/07/28 07:00:12;;;;;;;2.97;2.78;;;;;;;22.96;68.89;101041.31;4995970;28;102174;-54
2022/07/28 07:02:41;;;;;;;2.75;2.55;;;;;;;22.95;69.06;101036.94;4984414;28;103959;-55
2022/07/28 07:05:10;;;;;;;2.90;2.70;;;;;;;22.94;69.12;101046.44;4990600;28;102207;-54
2022/07/28 07:07:37;;;;;;;2.78;2.58;;;;;;;22.94;68.92;101040.88;5006058;28;102153;-54
2022/07/28 07:10:05;;;;;;;3.60;2.63;;;;;;;22.94;68.89;101050.00;5018167;28;102343;-54
2022/07/28 07:12:33;;;;;;;;;;;;;;;22.93;69.17;101050.34;5005881;28;103803;-53
2022/07/28 07:14:59;;;;;;;3.80;2.65;;;;;;;22.92;69.10;101048.72;4997216;28;102550;-54
2022/07/28 07:17:29;;;;;;;3.00;2.70;;;;;;;22.92;69.27;101048.72;4997950;28;102118;-59
2022/07/28 07:20:01;;;;;;;3.03;2.83;;;;;;;22.92;69.16;101049.53;4994776;28;102584;-54
2022/07/28 07:22:29;;;;;;;3.10;2.90;;;;;;;22.92;69.09;101049.53;4995306;28;103923;-54
2022/07/28 07:25:06;;;;;;;3.10;2.90;;;;;;;22.92;69.19;101054.28;4996651;28;102681;-54
2022/07/28 07:27:33;;;;;;;3.08;2.88;;;;;;;22.92;69.15;101057.06;4997505;28;102426;-54
2022/07/28 07:30:01;;;;;;;2.80;2.60;;;;;;;22.91;69.18;101056.22;4998613;28;102193;-54
2022/07/28 07:32:27;;;;;;;2.67;2.47;;;;;;;22.92;69.19;101062.59;4996113;28;104085;-54
2022/07/28 07:34:54;;;;;;;2.63;2.42;;;;;;;22.91;69.16;101066.50;4992929;28;102254;-54
2022/07/28 07:37:21;;;;;;;2.70;2.50;;;;;;;22.91;69.25;101063.75;4996429;28;102133;-54
2022/07/28 07:39:49;;;;;;;2.40;2.20;;;;;;;22.91;68.99;101066.50;4995786;28;102225;-54
2022/07/28 07:42:16;;;;;;;2.90;2.70;;;;;;;22.90;69.32;101068.47;4996153;28;104017;-54
2022/07/28 07:44:43;;;;;;;3.00;2.70;;;;;;;22.89;69.24;101057.72;4996048;28;102252;-53
2022/07/28 07:47:09;;;;;;;2.67;2.47;;;;;;;22.90;69.35;101068.47;4995946;28;102795;-53
2022/07/28 07:49:37;;;;;;;2.78;2.58;;;;;;;22.89;69.28;101068.81;4994785;28;102216;-54
2022/07/28 07:52:04;;;;;;;3.00;2.80;;;;;;;22.88;69.22;101065.22;4995415;28;103949;-54
2022/07/28 07:54:31;;;;;;;3.17;2.88;;;;;;;22.87;69.22;101060.84;4995776;28;102283;-54
2022/07/28 07:56:59;;;;;;;2.72;2.53;;;;;;;22.88;69.22;101069.97;4983949;28;102096;-54
2022/07/28 07:59:26;;;;;;;3.00;2.70;;;;;;;22.87;69.35;101080.28;4998201;28;102132;-54
2022/07/28 08:01:55;;;;;;;3.08;2.78;;;;;;;22.87;69.33;101079.47;4996287;28;104106;-54
2022/07/28 08:04:23;;;;;;;2.95;2.60;;;;;;;22.86;69.12;101075.06;4976676;28;103620;-54
2022/07/28 08:06:50;;;;;;;2.78;2.58;;;;;;;22.86;69.44;101083.38;4976554;28;101875;-54
2022/07/28 08:09:16;;;;;;;2.60;2.45;;;;;;;22.85;69.17;101081.75;4983558;28;102158;-54
2022/07/28 08:11:44;;;;;;;;;;;;;;;22.83;69.31;101079.34;4995316;28;103922;-53
2022/07/28 08:14:12;;;;;;;3.00;2.70;;;;;;;22.83;69.42;101072.97;4995221;28;102186;-53
2022/07/28 08:16:39;;;;;;;3.00;2.80;;;;;;;22.82;69.39;101077.72;4996434;28;102164;-53
2022/07/28 08:19:06;;;;;;;2.80;2.60;;;;;;;22.82;69.44;101076.91;4989009;28;102164;-54
2022/07/28 08:21:32;;;;;;;2.92;2.60;;;;;;;22.81;69.43;101080.84;4989643;28;104097;-53
2022/07/28 08:23:59;;;;;;;2.80;2.60;;;;;;;22.82;69.33;101079.69;4996427;28;102164;-54
2022/07/28 08:26:28;;;;;;;2.80;2.60;;;;;;;22.82;69.51;101079.69;4995429;28;102042;-53
2022/07/28 08:28:54;;;;;;;3.00;2.80;;;;;;;22.83;69.31;101078.50;4997091;28;102168;-54
2022/07/28 08:31:22;;;;;;;2.72;2.53;;;;;;;22.83;69.40;101076.56;4994453;28;104031;-53
2022/07/28 08:33:50;;;;;;;2.58;2.40;;;;;;;22.83;69.41;101078.50;5004510;28;102922;-53
2022/07/28 08:36:17;;;;;;;2.65;2.45;;;;;;;22.84;69.49;101075.41;5016331;28;102070;-53
2022/07/28 08:38:45;;;;;;;2.38;2.17;;;;;;;22.86;69.44;101075.06;5006681;28;102302;-53
2022/07/28 08:41:19;;;;;;;2.95;2.65;;;;;;;22.87;69.18;101073.91;4992569;28;103932;-53
2022/07/28 08:43:50;;;;;;;2.92;2.72;;;;;;;22.89;69.28;101077.13;4990794;28;102236;-53
2022/07/28 08:46:23;;;;;;;2.80;2.60;;;;;;;22.92;69.01;101082.84;4998046;28;102401;-53
2022/07/28 08:48:50;;;;;;;2.85;2.65;;;;;;;22.92;69.06;101068.16;4994939;28;102342;-53
2022/07/28 08:51:19;;;;;;;3.00;2.80;;;;;;;22.96;69.13;101074.63;4999118;28;104096;-53
2022/07/28 08:53:47;;;;;;;3.00;2.80;;;;;;;22.96;69.09;101069.88;4999818;28;102189;-53
2022/07/28 08:56:14;;;;;;;3.10;2.87;;;;;;;22.97;69.33;101068.75;4994444;28;102398;-53
2022/07/28 08:58:42;;;;;;;3.30;2.97;;;;;;;22.98;69.08;101059.25;5000375;28;102240;-53
2022/07/28 09:01:12;;;;;;;3.15;2.95;;;;;;;23.00;69.00;101067.22;4992087;28;103867;-55
2022/07/28 09:03:41;;;;;;;3.30;3.03;;;;;;;23.02;69.07;101062.16;4992822;28;102398;-58
2022/07/28 09:06:08;;;;;;;3.53;2.75;;;;;;;23.01;69.15;101058.56;4998961;28;102149;-59
2022/07/28 09:08:34;;;;;;;2.80;2.60;;;;;;;23.00;68.99;101053.34;5000239;28;102482;-58
2022/07/28 09:11:06;;;;;;;2.78;2.58;;;;;;;23.01;69.08;101050.25;4999191;28;103889;-58
2022/07/28 09:13:34;;;;;;;2.92;2.72;;;;;;;23.03;68.96;101052.66;4999910;28;101951;-58
2022/07/28 09:16:01;;;;;;;3.70;3.10;;;;;;;23.02;69.03;101054.63;4999923;28;102238;-58
2022/07/28 09:18:27;;;;;;;3.15;2.90;;;;;;;23.06;68.63;101051.97;4995127;28;102216;-58
2022/07/28 09:20:55;;;;;;;2.95;2.75;;;;;;;23.06;69.01;101057.50;4993734;28;103948;-58
2022/07/28 09:23:22;;;;;;;4.30;3.20;;;;;;;23.04;68.80;101051.50;4999633;28;102224;-58
2022/07/28 09:25:49;;;;;;;3.13;2.92;;;;;;;23.04;68.85;101045.94;4999161;28;102716;-58
2022/07/28 09:28:17;;;;;;;3.33;3.03;;;;;;;23.03;68.89;101044.31;5000215;28;102529;-57
2022/07/28 09:30:49;;;;;;;3.20;2.90;;;;;;;23.03;69.02;101049.88;4998750;28;103937;-58
2022/07/28 09:33:28;;;;;;;2.80;2.60;;;;;;;23.04;68.83;101045.94;5000405;28;102231;-58
2022/07/28 09:35:58;;;;;;;2.60;2.40;;;;;;;23.04;68.94;101040.38;4997660;28;102376;-53
2022/07/28 09:38:29;;;;;;;3.67;3.08;;;;;;;23.04;69.02;101057.03;5000008;28;102275;-54
2022/07/28 09:40:57;;;;;;;3.20;2.90;;;;;;;23.03;69.06;101056.22;4997484;28;103984;-54
2022/07/28 09:43:32;;;;;;;2.83;2.63;;;;;;;23.03;69.41;101049.88;5000236;28;102107;-54
2022/07/28 09:46:06;;;;;;;2.85;2.65;;;;;;;23.03;69.10;101044.31;4999752;28;102147;-54
2022/07/28 09:48:35;;;;;;;2.97;2.67;;;;;;;23.04;69.08;101051.50;4999926;28;102563;-54
2022/07/28 09:51:23;;;;;;;3.40;3.10;;;;;;;23.04;68.97;101048.72;4998614;28;104080;-54
2022/07/28 09:53:50;;;;;;;2.65;2.45;;;;;;;23.05;69.00;101058.69;4999351;28;102325;-53
2022/07/28 09:56:18;;;;;;;2.97;2.57;;;;;;;23.06;69.11;101051.16;4990799;28;102470;-54
2022/07/28 09:58:55;;;;;;;3.40;2.70;;;;;;;23.06;69.11;101048.38;5000103;28;102132;-54
2022/07/28 10:01:22;;;;;;;2.88;2.67;;;;;;;23.05;68.96;101053.13;4997204;28;103919;-54
2022/07/28 10:03:54;;;;;;;2.83;2.63;;;;;;;23.04;69.17;101048.72;4999098;28;102382;-53
2022/07/28 10:06:27;;;;;;;2.83;2.63;;;;;;;23.03;69.17;101047.09;4998691;28;102270;-54
2022/07/28 10:08:55;;;;;;;3.08;2.88;;;;;;;23.03;68.99;101049.88;5000516;28;102340;-54
2022/07/28 10:11:25;;;;;;;2.53;2.40;;;;;;;23.03;69.06;101049.88;4995947;28;103908;-53
2022/07/28 10:13:54;;;;;;;3.08;2.88;;;;;;;23.02;69.07;101040.75;4998546;28;102166;-54
2022/07/28 10:16:22;;;;;;;2.88;2.67;;;;;;;23.03;68.94;101038.78;4997811;28;102274;-53
2022/07/28 10:18:49;;;;;;;3.33;3.13;;;;;;;23.03;68.93;101044.31;4992412;28;102198;-53
2022/07/28 10:21:17;;;;;;;3.03;2.83;;;;;;;23.03;68.92;101044.31;4995873;28;104005;-53
2022/07/28 10:23:48;;;;;;;3.05;2.85;;;;;;;23.01;69.01;101041.91;4998956;28;102262;-54
2022/07/28 10:26:24;;;;;;;3.05;2.75;;;;;;;23.01;69.14;101036.34;4996850;28;102197;-54
2022/07/28 10:28:54;;;;;;;3.42;3.20;;;;;;;23.02;69.09;101045.50;4999555;28;102173;-54
2022/07/28 10:31:40;;;;;;;2.92;2.72;;;;;;;23.02;69.07;101048.25;4997378;28;104117;-54
2022/07/28 10:34:12;;;;;;;3.25;3.05;;;;;;;23.00;69.08;101048.59;4998556;28;102436;-54
2022/07/28 10:36:41;;;;;;;3.08;2.75;;;;;;;23.00;69.02;101051.38;4997661;28;101880;-54
2022/07/28 10:39:14;;;;;;;3.40;3.20;;;;;;;22.99;69.16;101046.19;4999674;28;102798;-54
2022/07/28 10:41:42;;;;;;;2.80;2.60;;;;;;;22.98;69.05;101048.16;4998515;28;103009;-53
2022/07/28 10:44:13;;;;;;;3.03;2.83;;;;;;;22.97;69.35;101035.44;4997851;28;104741;-54
2022/07/28 10:46:42;;;;;;;3.00;2.80;;;;;;;22.99;69.19;101046.19;4998137;28;102144;-53
2022/07/28 10:49:10;;;;;;;3.03;2.83;;;;;;;22.96;69.38;101038.53;4999120;28;102559;-53
2022/07/28 10:51:40;;;;;;;3.60;3.30;;;;;;;22.98;69.29;101047.34;4997402;28;103906;-53
2022/07/28 10:54:13;;;;;;;2.78;2.58;;;;;;;22.96;69.23;101055.19;4998537;28;102330;-53
2022/07/28 10:56:49;;;;;;;3.55;2.80;;;;;;;22.96;69.24;101044.91;4997637;28;102112;-54
2022/07/28 10:59:42;;;;;;;2.85;2.65;;;;;;;22.98;69.25;101041.78;4999272;28;101952;-53
2022/07/28 11:02:48;;;;;;;3.58;3.28;;;;;;;22.98;69.04;101044.56;4987927;28;104042;-53
2022/07/28 11:05:25;;;;;;;2.92;2.72;;;;;;;22.97;69.24;101045.72;4994532;28;102291;-53
2022/07/28 11:07:52;;;;;;;3.15;2.95;;;;;;;22.98;69.08;101041.78;4996227;28;102069;-55
2022/07/28 11:10:21;;;;;;;3.05;2.85;;;;;;;23.00;69.24;101050.56;4998337;28;102259;-54
2022/07/28 11:12:50;;;;;;;3.40;3.20;;;;;;;22.98;69.20;101041.78;4997167;28;103037;-53
2022/07/28 11:15:27;;;;;;;3.25;3.05;;;;;;;22.97;69.07;101040.16;4997532;28;102153;-54
2022/07/28 11:17:59;;;;;;;3.20;3.00;;;;;;;22.97;69.14;101037.38;4994991;28;102124;-54
2022/07/28 11:21:04;;;;;;;3.42;3.13;;;;;;;22.97;69.25;101045.72;4990511;28;102221;-53
2022/07/28 11:23:53;;;;;;;3.05;2.75;;;;;;;22.96;69.24;101041.31;4995411;28;103917;-53
2022/07/28 11:26:36;;;;;;;3.15;2.85;;;;;;;22.97;68.87;101045.72;4997060;28;102610;-54
2022/07/28 11:29:21;;;;;;;3.10;2.90;;;;;;;22.96;69.31;101049.66;4996536;28;102486;-54